Aumsville, Oregon
Current Conditions -  °F | °C
As of 12:56 PM on Tuesday 21 Oct 2014 (Local Time) from KSLE Reporting Station
Broken Clouds Broken Clouds  
Wind Chill: 61°   Ceiling: 10000
Heat Index: 61°   Visibility: 10mi
Dew Point: 49°   Wind: 15mph
Humidity: 64%   Direction: 170°S
Pressure: 30"   Gusts: NA
Location:  44.84°N, 122.87°W
Report Text: KSLE 211956Z 17013KT 10SM SCT070 BKN100 16/09 A3000 RMK AO2 SLP157 T01610094
Loading
Personal Weather Stations






























Interactive Weather Map
Tropical Storm Tracking
New forecast layout! Learn more

10-Day Weather Forecast

Advertisements
Track Severe Weather on mobile